createdAt,value
2019-05-22T00:00:03.399Z,0.00
2019-05-22T00:01:03.426Z,0.00
2019-05-22T00:02:03.386Z,0.00
2019-05-22T00:03:03.782Z,0.00
2019-05-22T00:04:03.353Z,0.00
2019-05-22T00:05:03.342Z,0.00
2019-05-22T00:06:03.352Z,0.00
2019-05-22T00:07:03.333Z,0.00
2019-05-22T00:08:03.307Z,0.00
2019-05-22T00:09:03.294Z,0.00
2019-05-22T00:10:03.293Z,0.00
2019-05-22T00:11:03.341Z,0.00
2019-05-22T00:12:03.266Z,0.00
2019-05-22T00:13:03.272Z,0.00
2019-05-22T00:14:03.238Z,0.00
2019-05-22T00:15:03.529Z,0.00
2019-05-22T00:16:03.241Z,0.00
2019-05-22T00:17:03.205Z,0.00
2019-05-22T00:18:03.202Z,0.00
2019-05-22T00:19:03.192Z,0.00
2019-05-22T00:20:03.189Z,0.00
2019-05-22T00:21:03.330Z,0.00
2019-05-22T00:22:03.154Z,0.00
2019-05-22T00:23:03.141Z,0.00
2019-05-22T00:24:03.129Z,0.00
2019-05-22T00:25:03.119Z,0.00
2019-05-22T00:26:03.136Z,0.00
2019-05-22T00:27:03.098Z,0.00
2019-05-22T00:28:03.085Z,0.00
2019-05-22T00:29:03.083Z,0.00
2019-05-22T00:30:03.066Z,0.00
2019-05-22T00:31:03.095Z,0.00
2019-05-22T00:32:03.042Z,0.00
2019-05-22T00:33:03.033Z,0.00
2019-05-22T00:34:03.019Z,0.00
2019-05-22T00:35:03.016Z,0.00
2019-05-22T00:36:03.025Z,0.00
2019-05-22T00:37:02.988Z,0.00
2019-05-22T00:38:03.043Z,0.00
2019-05-22T00:39:02.964Z,0.00
2019-05-22T00:40:02.952Z,0.00
2019-05-22T00:41:02.972Z,0.00
2019-05-22T00:42:02.930Z,0.00
2019-05-22T00:43:06.948Z,0.00
2019-05-22T00:44:03.911Z,0.00
2019-05-22T00:45:02.895Z,0.00
2019-05-22T00:46:02.887Z,0.00
2019-05-22T00:47:02.922Z,0.00
2019-05-22T00:48:02.862Z,0.00
2019-05-22T00:49:02.853Z,0.00
2019-05-22T00:50:02.855Z,0.00
2019-05-22T00:51:02.829Z,0.00
2019-05-22T00:52:02.840Z,0.00
2019-05-22T00:53:02.809Z,0.00
2019-05-22T00:54:02.797Z,0.00
2019-05-22T00:55:02.783Z,0.00
2019-05-22T00:56:02.787Z,0.00
2019-05-22T00:57:02.788Z,0.00
2019-05-22T00:58:02.753Z,0.00
2019-05-22T00:59:02.740Z,0.00
2019-05-22T01:00:02.742Z,0.00
2019-05-22T01:01:02.718Z,0.00
2019-05-22T01:02:02.751Z,0.00
2019-05-22T01:03:02.793Z,0.00
2019-05-22T01:04:02.747Z,0.00
2019-05-22T01:05:02.674Z,0.00
2019-05-22T01:06:02.661Z,0.00
2019-05-22T01:07:02.686Z,0.00
2019-05-22T01:08:02.641Z,0.00
2019-05-22T01:09:02.664Z,0.00
2019-05-22T01:10:03.644Z,0.00
2019-05-22T01:11:02.607Z,0.00
2019-05-22T01:12:03.156Z,0.00
2019-05-22T01:13:02.584Z,0.00
2019-05-22T01:14:02.578Z,0.00
2019-05-22T01:15:03.202Z,0.00
2019-05-22T01:16:02.552Z,0.00
2019-05-22T01:17:02.566Z,0.00
2019-05-22T01:18:02.531Z,0.00
2019-05-22T01:19:02.518Z,0.00
2019-05-22T01:20:02.508Z,0.00
2019-05-22T01:21:02.521Z,0.00
2019-05-22T01:22:02.552Z,0.00
2019-05-22T01:23:02.486Z,0.00
2019-05-22T01:24:02.462Z,0.00
2019-05-22T01:25:02.451Z,0.00
2019-05-22T01:26:02.440Z,0.00
2019-05-22T01:27:02.438Z,0.00
2019-05-22T01:28:02.456Z,0.00
2019-05-22T01:29:02.409Z,0.00
2019-05-22T01:30:02.471Z,0.00
2019-05-22T01:31:02.387Z,0.00
2019-05-22T01:32:02.373Z,0.00
2019-05-22T01:33:02.387Z,0.00
2019-05-22T01:34:02.397Z,0.00
2019-05-22T01:35:02.342Z,0.00
2019-05-22T01:36:02.330Z,0.00
2019-05-22T01:37:02.317Z,0.00
2019-05-22T01:38:02.333Z,0.00
2019-05-22T01:39:02.325Z,0.00
2019-05-22T01:40:02.318Z,0.00
2019-05-22T01:41:02.274Z,0.00
2019-05-22T01:42:02.266Z,0.00
2019-05-22T01:43:02.278Z,0.00
2019-05-22T01:44:02.240Z,0.00
2019-05-22T01:45:06.465Z,0.00
2019-05-22T01:46:02.232Z,0.00
2019-05-22T01:47:02.210Z,0.00
2019-05-22T01:48:02.227Z,0.00
2019-05-22T01:49:02.190Z,0.00
2019-05-22T01:50:02.214Z,0.00
2019-05-22T01:51:02.176Z,0.00
2019-05-22T01:52:02.178Z,0.00
2019-05-22T01:53:02.216Z,0.00
2019-05-22T01:54:02.133Z,0.00
2019-05-22T01:55:02.124Z,0.00
2019-05-22T01:56:02.161Z,0.00
2019-05-22T01:57:02.097Z,0.00
2019-05-22T01:58:02.118Z,0.00
2019-05-22T01:59:02.076Z,0.00
2019-05-22T02:00:02.065Z,0.00
2019-05-22T02:01:02.107Z,0.00
2019-05-22T02:02:02.056Z,0.00
2019-05-22T02:03:02.055Z,0.00
2019-05-22T02:04:02.034Z,0.00
2019-05-22T02:05:02.009Z,0.00
2019-05-22T02:06:02.000Z,0.00
2019-05-22T02:07:01.992Z,0.00
2019-05-22T02:08:02.001Z,0.00
2019-05-22T02:09:01.966Z,0.00
2019-05-22T02:10:02.509Z,0.00
2019-05-22T02:11:01.958Z,0.00
2019-05-22T02:12:01.935Z,0.00
2019-05-22T02:13:01.961Z,0.00
2019-05-22T02:14:01.912Z,0.00
2019-05-22T02:15:01.922Z,0.00
2019-05-22T02:16:01.943Z,0.00
2019-05-22T02:17:01.891Z,0.00
2019-05-22T02:18:01.866Z,0.00
2019-05-22T02:19:01.914Z,0.00
2019-05-22T02:20:01.864Z,0.00
2019-05-22T02:21:01.838Z,0.00
2019-05-22T02:22:01.955Z,0.00
2019-05-22T02:23:01.820Z,0.00
2019-05-22T02:24:01.823Z,0.00
2019-05-22T02:25:01.858Z,0.00
2019-05-22T02:26:01.778Z,0.00
2019-05-22T02:27:02.207Z,0.00
2019-05-22T02:28:01.759Z,0.00
2019-05-22T02:29:01.826Z,0.00
2019-05-22T02:30:01.739Z,0.00
2019-05-22T02:31:01.722Z,0.00
2019-05-22T02:32:01.726Z,0.00
2019-05-22T02:33:01.712Z,0.00
2019-05-22T02:34:01.717Z,0.00
2019-05-22T02:35:01.841Z,0.00
2019-05-22T02:36:01.671Z,0.00
2019-05-22T02:37:01.660Z,0.00
2019-05-22T02:38:01.651Z,0.00
2019-05-22T02:39:01.663Z,0.00
2019-05-22T02:40:01.646Z,0.00
2019-05-22T02:41:01.617Z,0.00
2019-05-22T02:42:01.612Z,0.00
2019-05-22T02:43:01.599Z,0.00
2019-05-22T02:44:01.624Z,0.00
2019-05-22T02:45:01.574Z,0.00
2019-05-22T02:46:01.569Z,0.00
2019-05-22T02:47:17.941Z,0.00
2019-05-22T02:48:02.539Z,0.00
2019-05-22T02:49:01.562Z,0.00
2019-05-22T02:50:01.652Z,0.00
2019-05-22T02:51:01.504Z,0.00
2019-05-22T02:52:01.511Z,0.00
2019-05-22T02:53:01.483Z,0.00
2019-05-22T02:54:01.477Z,0.00
2019-05-22T02:55:01.487Z,0.00
2019-05-22T02:56:01.448Z,0.00
2019-05-22T02:57:01.439Z,0.00
2019-05-22T02:58:01.433Z,0.00
2019-05-22T02:59:01.425Z,0.00
2019-05-22T03:00:01.590Z,0.00
2019-05-22T03:01:01.416Z,0.00
2019-05-22T03:02:01.384Z,0.00
2019-05-22T03:03:01.374Z,0.00
2019-05-22T03:04:01.365Z,0.00
2019-05-22T03:05:01.373Z,0.00
2019-05-22T03:06:01.355Z,0.00
2019-05-22T03:07:01.330Z,0.00
2019-05-22T03:08:01.318Z,4.00
2019-05-22T03:09:01.342Z,4.00
2019-05-22T03:10:01.336Z,4.00
2019-05-22T03:11:01.285Z,4.00
2019-05-22T03:12:01.287Z,4.00
2019-05-22T03:13:01.264Z,0.00
2019-05-22T03:14:01.255Z,4.00
2019-05-22T03:15:01.273Z,4.00
2019-05-22T03:16:01.232Z,4.00
2019-05-22T03:17:01.219Z,4.00
2019-05-22T03:18:01.218Z,4.00
2019-05-22T03:19:08.851Z,4.00
2019-05-22T03:20:02.211Z,8.00
2019-05-22T03:21:01.179Z,4.00
2019-05-22T03:22:01.166Z,8.00
2019-05-22T03:23:01.170Z,8.00
2019-05-22T03:24:01.158Z,12.00
2019-05-22T03:25:01.157Z,12.00
2019-05-22T03:26:01.124Z,12.00
2019-05-22T03:27:01.122Z,12.00
2019-05-22T03:28:01.105Z,16.00
2019-05-22T03:29:01.090Z,16.00
2019-05-22T03:30:01.122Z,16.00
2019-05-22T03:31:01.072Z,16.00
2019-05-22T03:32:01.058Z,20.00
2019-05-22T03:33:01.103Z,24.00
2019-05-22T03:34:01.042Z,20.00
2019-05-22T03:35:01.049Z,20.00
2019-05-22T03:36:01.028Z,24.00
2019-05-22T03:37:01.005Z,24.00
2019-05-22T03:38:01.006Z,28.00
2019-05-22T03:39:00.984Z,32.00
2019-05-22T03:40:00.999Z,32.00
2019-05-22T03:41:00.976Z,36.00
2019-05-22T03:42:00.956Z,40.00
2019-05-22T03:43:00.941Z,44.00
2019-05-22T03:44:00.932Z,44.00
2019-05-22T03:45:00.915Z,44.00
2019-05-22T03:46:00.946Z,52.00
2019-05-22T03:47:00.896Z,56.00
2019-05-22T03:48:00.898Z,56.00
2019-05-22T03:49:00.891Z,68.00
2019-05-22T03:50:00.871Z,64.00
2019-05-22T03:51:00.877Z,76.00
2019-05-22T03:52:00.841Z,80.00
2019-05-22T03:53:00.829Z,96.00
2019-05-22T03:54:00.823Z,100.00
2019-05-22T03:55:00.809Z,104.00
2019-05-22T03:56:00.841Z,108.00
2019-05-22T03:57:00.788Z,116.00
2019-05-22T03:58:00.779Z,128.00
2019-05-22T03:59:00.763Z,128.00
2019-05-22T04:00:00.755Z,128.00
2019-05-22T04:01:00.772Z,144.00
2019-05-22T04:02:00.745Z,132.00
2019-05-22T04:03:00.738Z,132.00
2019-05-22T04:04:00.717Z,132.00
2019-05-22T04:05:00.714Z,136.00
2019-05-22T04:06:00.710Z,132.00
2019-05-22T04:07:00.676Z,116.00
2019-05-22T04:08:00.689Z,116.00
2019-05-22T04:09:00.657Z,140.00
2019-05-22T04:10:00.648Z,176.00
2019-05-22T04:11:00.658Z,152.00
2019-05-22T04:12:00.622Z,136.00
2019-05-22T04:13:00.612Z,176.00
2019-05-22T04:14:00.616Z,168.00
2019-05-22T04:15:00.587Z,184.00
2019-05-22T04:16:00.614Z,180.00
2019-05-22T04:17:00.573Z,176.00
2019-05-22T04:18:00.560Z,180.00
2019-05-22T04:19:00.547Z,192.00
2019-05-22T04:20:00.552Z,236.00
2019-05-22T04:21:00.547Z,260.00
2019-05-22T04:22:00.513Z,276.00
2019-05-22T04:23:00.527Z,308.00
2019-05-22T04:24:00.492Z,292.00
2019-05-22T04:25:00.480Z,408.00
2019-05-22T04:26:00.551Z,372.00
2019-05-22T04:27:00.486Z,360.00
2019-05-22T04:28:00.453Z,388.00
2019-05-22T04:29:00.440Z,352.00
2019-05-22T04:30:00.429Z,352.00
2019-05-22T04:31:00.418Z,304.00
2019-05-22T04:32:00.450Z,280.00
2019-05-22T04:33:00.397Z,288.00
2019-05-22T04:34:00.383Z,292.00
2019-05-22T04:35:00.381Z,248.00
2019-05-22T04:36:00.364Z,224.00
2019-05-22T04:37:00.376Z,240.00
2019-05-22T04:38:00.349Z,232.00
2019-05-22T04:39:00.327Z,228.00
2019-05-22T04:40:00.315Z,232.00
2019-05-22T04:41:00.310Z,224.00
2019-05-22T04:42:00.322Z,240.00
2019-05-22T04:43:00.293Z,248.00
2019-05-22T04:44:00.309Z,240.00
2019-05-22T04:45:00.301Z,252.00
2019-05-22T04:46:00.270Z,272.00
2019-05-22T04:47:00.267Z,276.00
2019-05-22T04:48:00.230Z,292.00
2019-05-22T04:49:00.225Z,296.00
2019-05-22T04:50:07.473Z,300.00
2019-05-22T04:51:01.194Z,348.00
2019-05-22T04:52:00.208Z,400.00
2019-05-22T04:53:00.178Z,388.00
2019-05-22T04:54:00.165Z,396.00
2019-05-22T04:55:00.154Z,396.00
2019-05-22T04:56:00.150Z,448.00
2019-05-22T04:57:00.157Z,444.00
2019-05-22T04:58:00.124Z,472.00
2019-05-22T04:59:00.111Z,508.00
2019-05-22T05:00:00.112Z,444.00
2019-05-22T05:01:00.089Z,444.00
2019-05-22T05:02:00.111Z,432.00
2019-05-22T05:03:00.065Z,472.00
2019-05-22T05:04:00.059Z,568.00
2019-05-22T05:05:00.087Z,620.00
2019-05-22T05:06:00.035Z,640.00
2019-05-22T05:07:00.222Z,772.00
2019-05-22T05:08:00.039Z,860.00
2019-05-22T05:09:00.000Z,904.00
2019-05-22T05:09:59.992Z,964.00
2019-05-22T05:10:59.977Z,1000.00
2019-05-22T05:11:59.972Z,992.00
2019-05-22T05:12:59.979Z,948.00
2019-05-22T05:13:59.970Z,980.00
2019-05-22T05:14:59.947Z,968.00
2019-05-22T05:15:59.922Z,1072.00
2019-05-22T05:16:59.914Z,1112.00
2019-05-22T05:17:59.924Z,1236.00
2019-05-22T05:18:59.892Z,1360.00
2019-05-22T05:19:59.878Z,1192.00
2019-05-22T05:20:59.890Z,1120.00
2019-05-22T05:21:59.864Z,1036.00
2019-05-22T05:22:59.869Z,980.00
2019-05-22T05:23:59.838Z,976.00
2019-05-22T05:24:59.827Z,992.00
2019-05-22T05:25:59.816Z,1012.00
2019-05-22T05:26:59.806Z,944.00
2019-05-22T05:27:59.850Z,956.00
2019-05-22T05:28:59.781Z,952.00
2019-05-22T05:29:59.776Z,1012.00
2019-05-22T05:30:59.758Z,1072.00
2019-05-22T05:31:59.751Z,1084.00
2019-05-22T05:32:59.760Z,992.00
2019-05-22T05:33:59.745Z,884.00
2019-05-22T05:34:59.726Z,792.00
2019-05-22T05:35:59.767Z,856.00
2019-05-22T05:36:59.701Z,940.00
2019-05-22T05:37:59.719Z,896.00
2019-05-22T05:38:59.675Z,824.00
2019-05-22T05:39:59.702Z,768.00
2019-05-22T05:40:59.664Z,708.00
2019-05-22T05:41:59.639Z,664.00
2019-05-22T05:42:59.655Z,604.00
2019-05-22T05:43:59.619Z,552.00
2019-05-22T05:44:59.609Z,500.00
2019-05-22T05:45:59.598Z,428.00
2019-05-22T05:46:59.601Z,468.00
2019-05-22T05:47:59.603Z,496.00
2019-05-22T05:48:59.565Z,544.00
2019-05-22T05:49:59.551Z,552.00
2019-05-22T05:50:59.552Z,596.00
2019-05-22T05:51:59.537Z,668.00
2019-05-22T05:52:59.544Z,676.00
2019-05-22T05:53:59.541Z,660.00
2019-05-22T05:54:59.498Z,704.00
2019-05-22T05:55:59.487Z,716.00
2019-05-22T05:56:59.476Z,700.00
2019-05-22T05:57:59.487Z,656.00
2019-05-22T05:58:59.467Z,692.00
2019-05-22T05:59:59.442Z,716.00
2019-05-22T06:00:59.443Z,852.00
2019-05-22T06:01:59.433Z,964.00
2019-05-22T06:02:59.455Z,1064.00
2019-05-22T06:03:59.401Z,1096.00
2019-05-22T06:04:59.397Z,1184.00
2019-05-22T06:05:59.379Z,1132.00
2019-05-22T06:07:00.730Z,1104.00
2019-05-22T06:07:59.354Z,1120.00
2019-05-22T06:08:59.408Z,1052.00
2019-05-22T06:09:59.331Z,1148.00
2019-05-22T06:10:59.354Z,1304.00
2019-05-22T06:11:59.309Z,1320.00
2019-05-22T06:12:59.297Z,1364.00
2019-05-22T06:13:59.312Z,1460.00
2019-05-22T06:14:59.291Z,1508.00
2019-05-22T06:15:59.266Z,1500.00
2019-05-22T06:16:59.277Z,1568.00
2019-05-22T06:17:59.243Z,1536.00
2019-05-22T06:18:59.259Z,1412.00
2019-05-22T06:19:59.222Z,1376.00
2019-05-22T06:21:03.743Z,1296.00
2019-05-22T06:22:00.205Z,1300.00
2019-05-22T06:22:59.210Z,1360.00
2019-05-22T06:23:59.200Z,1428.00
2019-05-22T06:24:59.383Z,1512.00
2019-05-22T06:25:59.158Z,1664.00
2019-05-22T06:26:59.147Z,1524.00
2019-05-22T06:27:59.139Z,1664.00
2019-05-22T06:28:59.155Z,1676.00
2019-05-22T06:29:59.122Z,1580.00
2019-05-22T06:30:59.100Z,1504.00
2019-05-22T06:31:59.090Z,1824.00
2019-05-22T06:32:59.080Z,1924.00
2019-05-22T06:33:59.098Z,1948.00
2019-05-22T06:34:59.816Z,2060.00
2019-05-22T06:35:59.048Z,2232.00
2019-05-22T06:36:59.242Z,2292.00
2019-05-22T06:37:59.025Z,2204.00
2019-05-22T06:38:59.038Z,2144.00
2019-05-22T06:39:59.005Z,2040.00
2019-05-22T06:40:59.119Z,2052.00
2019-05-22T06:41:58.981Z,1872.00
2019-05-22T06:42:58.971Z,2004.00
2019-05-22T06:43:59.052Z,2260.00
2019-05-22T06:44:58.949Z,2612.00
2019-05-22T06:45:58.938Z,2728.00
2019-05-22T06:46:58.945Z,2744.00
2019-05-22T06:47:58.918Z,2428.00
2019-05-22T06:48:58.956Z,2292.00
2019-05-22T06:49:58.899Z,2752.00
2019-05-22T06:50:58.883Z,2304.00
2019-05-22T06:51:58.873Z,2188.00
2019-05-22T06:53:09.295Z,2280.00
2019-05-22T06:53:59.900Z,2556.00
2019-05-22T06:54:58.848Z,3148.00
2019-05-22T06:55:58.827Z,3124.00
2019-05-22T06:56:58.820Z,3168.00
2019-05-22T06:57:58.809Z,3560.00
2019-05-22T06:58:58.804Z,3652.00
2019-05-22T07:00:12.514Z,3480.00
2019-05-22T07:00:59.773Z,3584.00
2019-05-22T07:02:01.431Z,3580.00
2019-05-22T07:02:58.756Z,3608.00
2019-05-22T07:03:58.759Z,3752.00
2019-05-22T07:04:58.808Z,3516.00
2019-05-22T07:05:58.719Z,3580.00
2019-05-22T07:06:58.738Z,3536.00
2019-05-22T07:07:58.699Z,3496.00
2019-05-22T07:08:58.697Z,3528.00
2019-05-22T07:09:58.709Z,3548.00
2019-05-22T07:10:58.672Z,3616.00
2019-05-22T07:11:58.685Z,3596.00
2019-05-22T07:12:58.646Z,3196.00
2019-05-22T07:13:58.638Z,3464.00
2019-05-22T07:14:58.640Z,3640.00
2019-05-22T07:15:58.614Z,3880.00
2019-05-22T07:16:58.596Z,3792.00
2019-05-22T07:17:58.588Z,4016.00
2019-05-22T07:18:58.599Z,3828.00
2019-05-22T07:19:58.601Z,3852.00
2019-05-22T07:20:58.563Z,3960.00
2019-05-22T07:21:58.560Z,4132.00
2019-05-22T07:22:58.529Z,4168.00
2019-05-22T07:23:58.547Z,4144.00
2019-05-22T07:24:58.564Z,4084.00
2019-05-22T07:25:58.503Z,4156.00
2019-05-22T07:26:58.494Z,3872.00
2019-05-22T07:27:58.491Z,3692.00
2019-05-22T07:29:00.877Z,3656.00
2019-05-22T07:29:59.478Z,3460.00
2019-05-22T07:30:58.443Z,3364.00
2019-05-22T07:32:01.959Z,3408.00
2019-05-22T07:32:58.424Z,3560.00
2019-05-22T07:33:58.410Z,3688.00
2019-05-22T07:34:58.437Z,3768.00
2019-05-22T07:36:09.915Z,3908.00
2019-05-22T07:36:59.372Z,4148.00
2019-05-22T07:37:58.369Z,4380.00
2019-05-22T07:38:58.355Z,4512.00
2019-05-22T07:39:58.376Z,4564.00
2019-05-22T07:40:58.456Z,4468.00
2019-05-22T07:41:58.326Z,4316.00
2019-05-22T07:42:58.308Z,4452.00
2019-05-22T07:43:58.363Z,4180.00
2019-05-22T07:44:58.311Z,4404.00
2019-05-22T07:45:58.300Z,4456.00
2019-05-22T07:46:58.271Z,4428.00
2019-05-22T07:47:58.251Z,4632.00
2019-05-22T07:48:58.297Z,4788.00
2019-05-22T07:49:58.234Z,4784.00
2019-05-22T07:50:58.263Z,4780.00
2019-05-22T07:52:01.756Z,4928.00
2019-05-22T07:52:58.210Z,4972.00
2019-05-22T07:53:58.188Z,4784.00
2019-05-22T07:54:58.177Z,4712.00
2019-05-22T07:55:58.190Z,5008.00
2019-05-22T07:56:58.165Z,4900.00
2019-05-22T07:57:58.154Z,4672.00
2019-05-22T07:58:59.069Z,4740.00
2019-05-22T07:59:58.119Z,4768.00
2019-05-22T08:00:58.149Z,4856.00
2019-05-22T08:01:58.775Z,5000.00
2019-05-22T08:02:58.098Z,4976.00
2019-05-22T08:03:58.778Z,4952.00
2019-05-22T08:04:58.075Z,4856.00
2019-05-22T08:05:58.444Z,4720.00
2019-05-22T08:06:58.162Z,4816.00
2019-05-22T08:07:58.052Z,4828.00
2019-05-22T08:08:58.023Z,4924.00
2019-05-22T08:09:58.018Z,5128.00
2019-05-22T08:10:58.038Z,5340.00
2019-05-22T08:11:58.034Z,5240.00
2019-05-22T08:12:58.099Z,5104.00
2019-05-22T08:13:57.968Z,5120.00
2019-05-22T08:14:57.955Z,5076.00
2019-05-22T08:15:58.026Z,5124.00
2019-05-22T08:16:57.974Z,5344.00
2019-05-22T08:17:57.936Z,5544.00
2019-05-22T08:18:57.922Z,5584.00
2019-05-22T08:19:57.905Z,5608.00
2019-05-22T08:20:57.960Z,5524.00
2019-05-22T08:22:06.688Z,5504.00
2019-05-22T08:22:58.887Z,5568.00
2019-05-22T08:23:57.908Z,5708.00
2019-05-22T08:24:57.866Z,5888.00
2019-05-22T08:25:58.058Z,6032.00
2019-05-22T08:26:57.907Z,6244.00
2019-05-22T08:27:57.873Z,6688.00
2019-05-22T08:28:57.813Z,6968.00
2019-05-22T08:29:57.797Z,7236.00
2019-05-22T08:30:57.816Z,7540.00
2019-05-22T08:31:57.798Z,8004.00
2019-05-22T08:32:57.788Z,8284.00
2019-05-22T08:33:57.765Z,8512.00
2019-05-22T08:34:57.786Z,8780.00
2019-05-22T08:35:57.726Z,8852.00
2019-05-22T08:36:57.738Z,9108.00
2019-05-22T08:37:57.707Z,9168.00
2019-05-22T08:38:57.696Z,9364.00
2019-05-22T08:39:57.684Z,9604.00
2019-05-22T08:40:57.727Z,9520.00
2019-05-22T08:41:57.690Z,9512.00
2019-05-22T08:42:57.666Z,9592.00
2019-05-22T08:44:15.104Z,9576.00
2019-05-22T08:44:58.627Z,9756.00
2019-05-22T08:45:57.624Z,9560.00
2019-05-22T08:46:57.630Z,9196.00
2019-05-22T08:47:57.603Z,9212.00
2019-05-22T08:48:57.618Z,9568.00
2019-05-22T08:49:57.596Z,10136.00
2019-05-22T08:50:57.600Z,10228.00
2019-05-22T08:51:57.589Z,10144.00
2019-05-22T08:52:57.549Z,10168.00
2019-05-22T08:53:57.544Z,10452.00
2019-05-22T08:54:57.520Z,11028.00
2019-05-22T08:55:57.514Z,11156.00
2019-05-22T08:56:57.537Z,11280.00
2019-05-22T08:57:57.496Z,11392.00
2019-05-22T08:58:57.483Z,11588.00
2019-05-22T08:59:57.465Z,11964.00
2019-05-22T09:00:57.457Z,12112.00
2019-05-22T09:01:57.472Z,12012.00
2019-05-22T09:02:57.554Z,12036.00
2019-05-22T09:03:57.466Z,12296.00
2019-05-22T09:04:57.418Z,12676.00
2019-05-22T09:05:57.728Z,12984.00
2019-05-22T09:06:57.411Z,13284.00
2019-05-22T09:07:57.375Z,13644.00
2019-05-22T09:08:57.365Z,13920.00
2019-05-22T09:09:57.351Z,14048.00
2019-05-22T09:10:57.357Z,14000.00
2019-05-22T09:11:57.392Z,14036.00
2019-05-22T09:12:57.328Z,13844.00
2019-05-22T09:13:57.312Z,13928.00
2019-05-22T09:14:57.308Z,14244.00
2019-05-22T09:16:01.533Z,14128.00
2019-05-22T09:16:57.300Z,13824.00
2019-05-22T09:17:57.266Z,14076.00
2019-05-22T09:18:57.279Z,14356.00
2019-05-22T09:19:57.256Z,14436.00
2019-05-22T09:20:57.234Z,14484.00
2019-05-22T09:21:57.270Z,14500.00
2019-05-22T09:22:57.231Z,14460.00
2019-05-22T09:23:57.206Z,14484.00
2019-05-22T09:24:57.214Z,14436.00
2019-05-22T09:25:57.195Z,14360.00
2019-05-22T09:26:57.174Z,14424.00
2019-05-22T09:27:57.198Z,14176.00
2019-05-22T09:28:57.151Z,14144.00
2019-05-22T09:29:57.148Z,14536.00
2019-05-22T09:30:57.124Z,14284.00
2019-05-22T09:31:57.159Z,14000.00
2019-05-22T09:32:57.123Z,13652.00
2019-05-22T09:33:57.093Z,13884.00
2019-05-22T09:34:57.078Z,14096.00
2019-05-22T09:35:57.082Z,14032.00
2019-05-22T09:36:57.060Z,14144.00
2019-05-22T09:37:57.072Z,14728.00
2019-05-22T09:38:57.036Z,15168.00
2019-05-22T09:39:57.028Z,15016.00
2019-05-22T09:40:57.013Z,14548.00
2019-05-22T09:41:57.011Z,14696.00
2019-05-22T09:42:57.047Z,15232.00
2019-05-22T09:43:56.982Z,15744.00
2019-05-22T09:44:56.970Z,14988.00
2019-05-22T09:45:56.965Z,14640.00
2019-05-22T09:46:56.947Z,13972.00
2019-05-22T09:47:56.971Z,13644.00
2019-05-22T09:48:56.931Z,13300.00
2019-05-22T09:49:56.920Z,12808.00
2019-05-22T09:50:56.923Z,12392.00
2019-05-22T09:51:56.924Z,12316.00
2019-05-22T09:52:58.285Z,12452.00
2019-05-22T09:53:56.875Z,12340.00
2019-05-22T09:54:56.899Z,12068.00
2019-05-22T09:55:56.871Z,12124.00
2019-05-22T09:56:56.843Z,12648.00
2019-05-22T09:57:56.856Z,13288.00
2019-05-22T09:58:56.833Z,13784.00
2019-05-22T09:59:56.818Z,14236.00
2019-05-22T10:00:56.802Z,14724.00
2019-05-22T10:01:56.787Z,15096.00
2019-05-22T10:02:56.806Z,15552.00
2019-05-22T10:03:56.763Z,15648.00
2019-05-22T10:04:56.754Z,15776.00
2019-05-22T10:05:56.882Z,15808.00
2019-05-22T10:06:56.753Z,15680.00
2019-05-22T10:08:00.952Z,15136.00
2019-05-22T10:08:56.717Z,14672.00
2019-05-22T10:09:56.725Z,14164.00
2019-05-22T10:10:56.691Z,13712.00
2019-05-22T10:11:56.677Z,13328.00
2019-05-22T10:12:56.718Z,12900.00
2019-05-22T10:13:56.658Z,12996.00
2019-05-22T10:14:56.996Z,13468.00
2019-05-22T10:15:56.669Z,13924.00
2019-05-22T10:16:56.650Z,14240.00
2019-05-22T10:17:56.753Z,14668.00
2019-05-22T10:18:56.624Z,15360.00
2019-05-22T10:19:56.660Z,15584.00
2019-05-22T10:20:56.605Z,15424.00
2019-05-22T10:21:56.570Z,15360.00
2019-05-22T10:23:05.980Z,15552.00
2019-05-22T10:23:57.572Z,15168.00
2019-05-22T10:25:14.060Z,15104.00
2019-05-22T10:25:57.525Z,14908.00
2019-05-22T10:26:56.521Z,14864.00
2019-05-22T10:27:59.236Z,14444.00
2019-05-22T10:28:56.543Z,14324.00
2019-05-22T10:29:56.482Z,13496.00
2019-05-22T10:30:57.467Z,12748.00
2019-05-22T10:31:56.463Z,12440.00
2019-05-22T10:32:56.458Z,12336.00
2019-05-22T10:33:56.469Z,12540.00
2019-05-22T10:34:57.836Z,12756.00
2019-05-22T10:35:56.420Z,12868.00
2019-05-22T10:36:56.404Z,12372.00
2019-05-22T10:37:56.393Z,11772.00
2019-05-22T10:38:56.408Z,11540.00
2019-05-22T10:39:56.375Z,11224.00
2019-05-22T10:40:59.246Z,10524.00
2019-05-22T10:41:56.359Z,11580.00
2019-05-22T10:42:56.350Z,10048.00
2019-05-22T10:43:56.351Z,11508.00
2019-05-22T10:44:56.321Z,11900.00
2019-05-22T10:45:56.306Z,13096.00
2019-05-22T10:46:56.297Z,14720.00
2019-05-22T10:47:56.292Z,16768.00
2019-05-22T10:48:56.301Z,16448.00
2019-05-22T10:49:56.264Z,17248.00
2019-05-22T10:50:56.251Z,15296.00
2019-05-22T10:51:56.248Z,15904.00
2019-05-22T10:52:56.230Z,18880.00
2019-05-22T10:53:56.256Z,15136.00
2019-05-22T10:54:56.232Z,14628.00
2019-05-22T10:55:56.201Z,14764.00
2019-05-22T10:56:56.186Z,13128.00
2019-05-22T10:57:56.177Z,12200.00
2019-05-22T10:58:56.194Z,12232.00
2019-05-22T10:59:56.154Z,12936.00
2019-05-22T11:00:56.142Z,15328.00
2019-05-22T11:01:56.138Z,13452.00
2019-05-22T11:02:56.141Z,12368.00
2019-05-22T11:03:56.242Z,12024.00
2019-05-22T11:04:56.103Z,13784.00
2019-05-22T11:06:06.586Z,13712.00
2019-05-22T11:06:57.130Z,15712.00
2019-05-22T11:07:56.070Z,15360.00
2019-05-22T11:08:56.090Z,15744.00
2019-05-22T11:09:56.047Z,15776.00
2019-05-22T11:10:56.044Z,14700.00
2019-05-22T11:11:56.042Z,13076.00
2019-05-22T11:12:56.018Z,12160.00
2019-05-22T11:14:01.180Z,12196.00
2019-05-22T11:14:56.994Z,13196.00
2019-05-22T11:15:55.992Z,15296.00
2019-05-22T11:16:55.972Z,15296.00
2019-05-22T11:17:55.963Z,14568.00
2019-05-22T11:18:56.005Z,12892.00
2019-05-22T11:19:55.962Z,13096.00
2019-05-22T11:20:55.932Z,13380.00
2019-05-22T11:21:57.142Z,14212.00
2019-05-22T11:22:55.911Z,14788.00
2019-05-22T11:23:55.901Z,15520.00
2019-05-22T11:24:55.912Z,13576.00
2019-05-22T11:25:55.879Z,12040.00
2019-05-22T11:26:55.868Z,11304.00
2019-05-22T11:27:55.943Z,11276.00
2019-05-22T11:28:56.163Z,10660.00
2019-05-22T11:29:55.865Z,10564.00
2019-05-22T11:30:55.833Z,11648.00
2019-05-22T11:31:55.813Z,11468.00
2019-05-22T11:32:55.806Z,11512.00
2019-05-22T11:33:55.795Z,11992.00
2019-05-22T11:34:55.827Z,12712.00
2019-05-22T11:35:55.773Z,13652.00
2019-05-22T11:36:55.859Z,14544.00
2019-05-22T11:37:55.757Z,15068.00
2019-05-22T11:38:55.741Z,13952.00
2019-05-22T11:39:55.760Z,12204.00
2019-05-22T11:40:55.720Z,11548.00
2019-05-22T11:41:55.707Z,13364.00
2019-05-22T11:42:55.696Z,13360.00
2019-05-22T11:43:55.953Z,13496.00
2019-05-22T11:44:55.701Z,13496.00
2019-05-22T11:45:55.783Z,13904.00
2019-05-22T11:46:55.658Z,14416.00
2019-05-22T11:47:55.669Z,15036.00
2019-05-22T11:48:55.632Z,14292.00
2019-05-22T11:49:55.886Z,13056.00
2019-05-22T11:50:55.611Z,13352.00
2019-05-22T11:51:55.639Z,14004.00
2019-05-22T11:52:55.589Z,13900.00
2019-05-22T11:54:08.803Z,13592.00
2019-05-22T11:54:56.603Z,13440.00
2019-05-22T11:55:55.588Z,11780.00
2019-05-22T11:56:55.644Z,13104.00
2019-05-22T11:57:55.535Z,13640.00
2019-05-22T11:58:55.525Z,14084.00
2019-05-22T11:59:55.595Z,14176.00
2019-05-22T12:00:55.508Z,14540.00
2019-05-22T12:01:55.493Z,15344.00
2019-05-22T12:02:55.483Z,16448.00
2019-05-22T12:03:55.481Z,17984.00
2019-05-22T12:04:55.601Z,19360.00
2019-05-22T12:05:55.451Z,19104.00
2019-05-22T12:06:55.436Z,12480.00
2019-05-22T12:07:55.426Z,12392.00
2019-05-22T12:08:55.419Z,12696.00
2019-05-22T12:09:55.462Z,16416.00
2019-05-22T12:10:55.401Z,16896.00
2019-05-22T12:11:55.384Z,16800.00
2019-05-22T12:12:55.376Z,16960.00
2019-05-22T12:13:55.361Z,14968.00
2019-05-22T12:14:55.387Z,16384.00
2019-05-22T12:15:55.346Z,16672.00
2019-05-22T12:16:55.341Z,17056.00
2019-05-22T12:17:55.319Z,13404.00
2019-05-22T12:18:58.479Z,12940.00
2019-05-22T12:19:55.300Z,12740.00
2019-05-22T12:20:55.332Z,14152.00
2019-05-22T12:21:55.269Z,15004.00
2019-05-22T12:22:55.266Z,15284.00